sensor_id;sensor_type;location;lat;lon;timestamp;P1;durP1;ratioP1;P2;durP2;ratioP2
11604;SDS011;5858;43.076;25.626;2023-04-25T00:01:03;16.00;;;13.10;;
11604;SDS011;5858;43.076;25.626;2023-04-25T00:03:31;10.60;;;9.50;;
11604;SDS011;5858;43.076;25.626;2023-04-25T00:05:58;8.70;;;7.80;;
11604;SDS011;5858;43.076;25.626;2023-04-25T00:08:28;9.37;;;7.60;;
11604;SDS011;5858;43.076;25.626;2023-04-25T00:10:56;8.70;;;7.73;;
11604;SDS011;5858;43.076;25.626;2023-04-25T00:13:23;20.30;;;13.43;;
11604;SDS011;5858;43.076;25.626;2023-04-25T00:15:50;15.67;;;11.73;;
11604;SDS011;5858;43.076;25.626;2023-04-25T00:18:18;12.40;;;10.60;;
11604;SDS011;5858;43.076;25.626;2023-04-25T00:20:45;15.03;;;10.83;;
11604;SDS011;5858;43.076;25.626;2023-04-25T00:23:12;11.03;;;9.97;;
11604;SDS011;5858;43.076;25.626;2023-04-25T00:25:44;12.40;;;10.93;;
11604;SDS011;5858;43.076;25.626;2023-04-25T00:28:11;11.63;;;10.43;;
11604;SDS011;5858;43.076;25.626;2023-04-25T00:30:39;13.07;;;11.40;;
11604;SDS011;5858;43.076;25.626;2023-04-25T00:33:06;11.97;;;10.77;;
11604;SDS011;5858;43.076;25.626;2023-04-25T00:35:34;13.80;;;11.07;;
11604;SDS011;5858;43.076;25.626;2023-04-25T00:38:01;13.90;;;11.70;;
11604;SDS011;5858;43.076;25.626;2023-04-25T00:40:28;12.97;;;11.77;;
11604;SDS011;5858;43.076;25.626;2023-04-25T00:42:57;13.93;;;11.90;;
11604;SDS011;5858;43.076;25.626;2023-04-25T00:45:26;12.73;;;11.43;;
11604;SDS011;5858;43.076;25.626;2023-04-25T00:47:54;12.87;;;10.83;;
11604;SDS011;5858;43.076;25.626;2023-04-25T00:50:22;12.93;;;11.60;;
11604;SDS011;5858;43.076;25.626;2023-04-25T00:52:49;15.07;;;12.40;;
11604;SDS011;5858;43.076;25.626;2023-04-25T00:55:17;13.53;;;11.80;;
11604;SDS011;5858;43.076;25.626;2023-04-25T00:57:44;13.77;;;11.43;;
11604;SDS011;5858;43.076;25.626;2023-04-25T01:00:13;14.20;;;10.87;;
11604;SDS011;5858;43.076;25.626;2023-04-25T01:02:41;11.33;;;10.10;;
11604;SDS011;5858;43.076;25.626;2023-04-25T01:05:08;14.20;;;9.93;;
11604;SDS011;5858;43.076;25.626;2023-04-25T01:07:35;11.00;;;8.47;;
11604;SDS011;5858;43.076;25.626;2023-04-25T01:10:03;9.47;;;8.43;;
11604;SDS011;5858;43.076;25.626;2023-04-25T01:12:31;9.37;;;8.37;;
11604;SDS011;5858;43.076;25.626;2023-04-25T01:14:59;8.50;;;7.70;;
11604;SDS011;5858;43.076;25.626;2023-04-25T01:17:28;9.40;;;8.50;;
11604;SDS011;5858;43.076;25.626;2023-04-25T01:19:56;8.33;;;7.53;;
11604;SDS011;5858;43.076;25.626;2023-04-25T01:22:25;9.97;;;8.97;;
11604;SDS011;5858;43.076;25.626;2023-04-25T01:24:52;13.40;;;9.40;;
11604;SDS011;5858;43.076;25.626;2023-04-25T01:27:20;10.30;;;8.43;;
11604;SDS011;5858;43.076;25.626;2023-04-25T01:29:47;10.47;;;8.93;;
11604;SDS011;5858;43.076;25.626;2023-04-25T01:32:16;9.40;;;8.03;;
11604;SDS011;5858;43.076;25.626;2023-04-25T01:34:44;10.17;;;9.13;;
11604;SDS011;5858;43.076;25.626;2023-04-25T01:37:12;9.77;;;8.03;;
11604;SDS011;5858;43.076;25.626;2023-04-25T01:39:42;8.53;;;7.73;;
11604;SDS011;5858;43.076;25.626;2023-04-25T01:42:09;9.30;;;8.40;;
11604;SDS011;5858;43.076;25.626;2023-04-25T01:44:36;10.63;;;9.53;;
11604;SDS011;5858;43.076;25.626;2023-04-25T01:47:03;11.50;;;10.30;;
11604;SDS011;5858;43.076;25.626;2023-04-25T01:49:30;10.63;;;9.60;;
11604;SDS011;5858;43.076;25.626;2023-04-25T01:51:57;12.40;;;9.97;;
11604;SDS011;5858;43.076;25.626;2023-04-25T01:54:25;10.40;;;9.30;;
11604;SDS011;5858;43.076;25.626;2023-04-25T01:56:56;9.97;;;8.97;;
11604;SDS011;5858;43.076;25.626;2023-04-25T01:59:23;9.37;;;8.47;;
11604;SDS011;5858;43.076;25.626;2023-04-25T02:01:51;10.33;;;9.23;;
11604;SDS011;5858;43.076;25.626;2023-04-25T02:04:18;8.97;;;8.17;;
11604;SDS011;5858;43.076;25.626;2023-04-25T02:06:45;9.47;;;8.43;;
11604;SDS011;5858;43.076;25.626;2023-04-25T02:09:12;9.40;;;8.47;;
11604;SDS011;5858;43.076;25.626;2023-04-25T02:11:39;9.17;;;8.23;;
11604;SDS011;5858;43.076;25.626;2023-04-25T02:14:08;10.13;;;8.23;;
11604;SDS011;5858;43.076;25.626;2023-04-25T02:16:35;8.73;;;7.50;;
11604;SDS011;5858;43.076;25.626;2023-04-25T02:19:02;9.00;;;8.03;;
11604;SDS011;5858;43.076;25.626;2023-04-25T02:21:31;8.63;;;7.77;;
11604;SDS011;5858;43.076;25.626;2023-04-25T02:24:00;8.93;;;8.10;;
11604;SDS011;5858;43.076;25.626;2023-04-25T02:26:27;9.40;;;7.93;;
11604;SDS011;5858;43.076;25.626;2023-04-25T02:28:55;10.10;;;9.07;;
11604;SDS011;5858;43.076;25.626;2023-04-25T02:31:24;9.50;;;8.60;;
11604;SDS011;5858;43.076;25.626;2023-04-25T02:33:51;9.63;;;8.63;;
11604;SDS011;5858;43.076;25.626;2023-04-25T02:36:18;9.43;;;8.40;;
11604;SDS011;5858;43.076;25.626;2023-04-25T02:38:45;8.50;;;7.70;;
11604;SDS011;5858;43.076;25.626;2023-04-25T02:41:12;8.53;;;7.60;;
11604;SDS011;5858;43.076;25.626;2023-04-25T02:43:39;10.13;;;7.40;;
11604;SDS011;5858;43.076;25.626;2023-04-25T02:46:06;7.73;;;7.03;;
11604;SDS011;5858;43.076;25.626;2023-04-25T02:48:35;8.20;;;7.43;;
11604;SDS011;5858;43.076;25.626;2023-04-25T02:51:02;8.53;;;7.50;;
11604;SDS011;5858;43.076;25.626;2023-04-25T02:53:29;9.53;;;7.23;;
11604;SDS011;5858;43.076;25.626;2023-04-25T02:55:56;8.73;;;7.93;;
11604;SDS011;5858;43.076;25.626;2023-04-25T02:58:24;8.93;;;7.60;;
11604;SDS011;5858;43.076;25.626;2023-04-25T03:00:51;10.23;;;7.60;;
11604;SDS011;5858;43.076;25.626;2023-04-25T03:03:18;9.87;;;7.93;;
11604;SDS011;5858;43.076;25.626;2023-04-25T03:05:48;9.23;;;7.70;;
11604;SDS011;5858;43.076;25.626;2023-04-25T03:08:15;8.57;;;7.73;;
11604;SDS011;5858;43.076;25.626;2023-04-25T03:10:43;10.27;;;7.70;;
11604;SDS011;5858;43.076;25.626;2023-04-25T03:13:10;7.47;;;6.77;;
11604;SDS011;5858;43.076;25.626;2023-04-25T03:15:38;8.23;;;7.43;;
11604;SDS011;5858;43.076;25.626;2023-04-25T03:18:07;8.10;;;7.30;;
11604;SDS011;5858;43.076;25.626;2023-04-25T03:20:34;8.63;;;7.73;;
11604;SDS011;5858;43.076;25.626;2023-04-25T03:23:03;8.90;;;8.10;;
11604;SDS011;5858;43.076;25.626;2023-04-25T03:25:30;9.00;;;8.17;;
11604;SDS011;5858;43.076;25.626;2023-04-25T03:27:57;8.63;;;7.83;;
11604;SDS011;5858;43.076;25.626;2023-04-25T03:30:24;9.20;;;7.77;;
11604;SDS011;5858;43.076;25.626;2023-04-25T03:32:51;12.33;;;7.57;;
11604;SDS011;5858;43.076;25.626;2023-04-25T03:35:18;8.13;;;7.43;;
11604;SDS011;5858;43.076;25.626;2023-04-25T03:37:45;9.83;;;8.80;;
11604;SDS011;5858;43.076;25.626;2023-04-25T03:40:13;8.60;;;7.80;;
11604;SDS011;5858;43.076;25.626;2023-04-25T03:42:41;9.50;;;8.50;;
11604;SDS011;5858;43.076;25.626;2023-04-25T03:45:08;8.73;;;7.77;;
11604;SDS011;5858;43.076;25.626;2023-04-25T03:47:35;8.30;;;7.50;;
11604;SDS011;5858;43.076;25.626;2023-04-25T03:50:02;9.33;;;8.23;;
11604;SDS011;5858;43.076;25.626;2023-04-25T03:52:30;8.67;;;7.77;;
11604;SDS011;5858;43.076;25.626;2023-04-25T03:54:57;9.67;;;8.33;;
11604;SDS011;5858;43.076;25.626;2023-04-25T03:57:25;21.17;;;17.30;;
11604;SDS011;5858;43.076;25.626;2023-04-25T03:59:52;18.37;;;14.13;;
11604;SDS011;5858;43.076;25.626;2023-04-25T04:02:19;10.97;;;9.60;;
11604;SDS011;5858;43.076;25.626;2023-04-25T04:04:46;8.67;;;7.87;;
11604;SDS011;5858;43.076;25.626;2023-04-25T04:07:13;9.10;;;8.17;;
11604;SDS011;5858;43.076;25.626;2023-04-25T04:09:40;10.03;;;8.60;;
11604;SDS011;5858;43.076;25.626;2023-04-25T04:12:07;8.33;;;7.40;;
11604;SDS011;5858;43.076;25.626;2023-04-25T04:14:35;9.60;;;8.47;;
11604;SDS011;5858;43.076;25.626;2023-04-25T04:17:03;13.67;;;8.30;;
11604;SDS011;5858;43.076;25.626;2023-04-25T04:19:31;10.20;;;9.10;;
11604;SDS011;5858;43.076;25.626;2023-04-25T04:21:58;10.03;;;9.00;;
11604;SDS011;5858;43.076;25.626;2023-04-25T04:24:25;10.43;;;9.33;;
11604;SDS011;5858;43.076;25.626;2023-04-25T04:26:52;10.17;;;9.13;;
11604;SDS011;5858;43.076;25.626;2023-04-25T04:29:20;11.23;;;9.27;;
11604;SDS011;5858;43.076;25.626;2023-04-25T04:31:49;11.83;;;9.83;;
11604;SDS011;5858;43.076;25.626;2023-04-25T04:34:17;12.00;;;9.80;;
11604;SDS011;5858;43.076;25.626;2023-04-25T04:36:47;11.90;;;9.10;;
11604;SDS011;5858;43.076;25.626;2023-04-25T04:39:14;13.33;;;10.60;;
11604;SDS011;5858;43.076;25.626;2023-04-25T04:41:41;10.37;;;9.33;;
11604;SDS011;5858;43.076;25.626;2023-04-25T04:44:08;11.70;;;10.50;;
11604;SDS011;5858;43.076;25.626;2023-04-25T04:46:35;11.50;;;10.33;;
11604;SDS011;5858;43.076;25.626;2023-04-25T04:49:11;15.73;;;11.40;;
11604;SDS011;5858;43.076;25.626;2023-04-25T04:51:39;11.77;;;10.47;;
11604;SDS011;5858;43.076;25.626;2023-04-25T04:54:09;12.03;;;10.77;;
11604;SDS011;5858;43.076;25.626;2023-04-25T04:56:36;12.63;;;11.30;;
11604;SDS011;5858;43.076;25.626;2023-04-25T04:59:03;12.97;;;11.63;;
11604;SDS011;5858;43.076;25.626;2023-04-25T05:01:31;12.70;;;11.40;;
11604;SDS011;5858;43.076;25.626;2023-04-25T05:04:00;14.27;;;10.53;;
11604;SDS011;5858;43.076;25.626;2023-04-25T05:06:29;14.80;;;11.60;;
11604;SDS011;5858;43.076;25.626;2023-04-25T05:08:57;14.10;;;11.70;;
11604;SDS011;5858;43.076;25.626;2023-04-25T05:11:25;16.73;;;13.60;;
11604;SDS011;5858;43.076;25.626;2023-04-25T05:13:52;16.27;;;13.00;;
11604;SDS011;5858;43.076;25.626;2023-04-25T05:16:19;19.93;;;12.83;;
11604;SDS011;5858;43.076;25.626;2023-04-25T05:18:46;15.67;;;12.93;;
11604;SDS011;5858;43.076;25.626;2023-04-25T05:21:13;15.63;;;13.30;;
11604;SDS011;5858;43.076;25.626;2023-04-25T05:23:42;13.73;;;12.20;;
11604;SDS011;5858;43.076;25.626;2023-04-25T05:26:09;14.30;;;12.57;;
11604;SDS011;5858;43.076;25.626;2023-04-25T05:28:39;19.67;;;12.23;;
11604;SDS011;5858;43.076;25.626;2023-04-25T05:31:06;14.60;;;12.07;;
11604;SDS011;5858;43.076;25.626;2023-04-25T05:33:33;24.40;;;15.70;;
11604;SDS011;5858;43.076;25.626;2023-04-25T05:36:00;12.43;;;11.00;;
11604;SDS011;5858;43.076;25.626;2023-04-25T05:38:27;13.23;;;11.23;;
11604;SDS011;5858;43.076;25.626;2023-04-25T05:40:56;13.37;;;10.30;;
11604;SDS011;5858;43.076;25.626;2023-04-25T05:43:23;18.00;;;12.50;;
11604;SDS011;5858;43.076;25.626;2023-04-25T05:45:50;16.00;;;11.17;;
11604;SDS011;5858;43.076;25.626;2023-04-25T05:48:17;14.93;;;11.27;;
11604;SDS011;5858;43.076;25.626;2023-04-25T05:50:44;11.43;;;9.83;;
11604;SDS011;5858;43.076;25.626;2023-04-25T05:53:11;13.50;;;10.17;;
11604;SDS011;5858;43.076;25.626;2023-04-25T05:55:38;13.97;;;10.73;;
11604;SDS011;5858;43.076;25.626;2023-04-25T05:58:07;11.85;;;9.82;;
11604;SDS011;5858;43.076;25.626;2023-04-25T06:00:34;12.55;;;8.95;;
11604;SDS011;5858;43.076;25.626;2023-04-25T06:03:01;9.30;;;8.00;;
11604;SDS011;5858;43.076;25.626;2023-04-25T06:05:28;8.73;;;7.32;;
11604;SDS011;5858;43.076;25.626;2023-04-25T06:07:55;9.00;;;7.15;;
11604;SDS011;5858;43.076;25.626;2023-04-25T06:10:22;10.30;;;7.82;;
11604;SDS011;5858;43.076;25.626;2023-04-25T06:12:49;11.52;;;8.07;;
11604;SDS011;5858;43.076;25.626;2023-04-25T06:15:18;12.02;;;8.25;;
11604;SDS011;5858;43.076;25.626;2023-04-25T06:17:45;10.95;;;7.75;;
11604;SDS011;5858;43.076;25.626;2023-04-25T06:20:12;15.20;;;7.88;;
11604;SDS011;5858;43.076;25.626;2023-04-25T06:22:39;9.35;;;7.32;;
11604;SDS011;5858;43.076;25.626;2023-04-25T06:25:06;11.52;;;6.45;;
11604;SDS011;5858;43.076;25.626;2023-04-25T06:27:34;7.82;;;6.13;;
11604;SDS011;5858;43.076;25.626;2023-04-25T06:30:03;7.78;;;5.60;;
11604;SDS011;5858;43.076;25.626;2023-04-25T06:32:32;7.72;;;5.75;;
11604;SDS011;5858;43.076;25.626;2023-04-25T06:35:00;7.97;;;5.68;;
11604;SDS011;5858;43.076;25.626;2023-04-25T06:37:27;5.80;;;5.00;;
11604;SDS011;5858;43.076;25.626;2023-04-25T06:39:54;10.40;;;5.85;;
11604;SDS011;5858;43.076;25.626;2023-04-25T06:42:21;8.13;;;4.88;;
11604;SDS011;5858;43.076;25.626;2023-04-25T06:44:48;5.75;;;5.15;;
11604;SDS011;5858;43.076;25.626;2023-04-25T06:47:15;6.53;;;4.43;;
11604;SDS011;5858;43.076;25.626;2023-04-25T06:49:43;7.90;;;5.00;;
11604;SDS011;5858;43.076;25.626;2023-04-25T06:52:11;10.95;;;5.50;;
11604;SDS011;5858;43.076;25.626;2023-04-25T06:54:38;6.70;;;4.63;;
11604;SDS011;5858;43.076;25.626;2023-04-25T06:57:05;9.35;;;4.90;;
11604;SDS011;5858;43.076;25.626;2023-04-25T06:59:32;7.85;;;3.92;;
11604;SDS011;5858;43.076;25.626;2023-04-25T07:01:59;5.38;;;3.88;;
11604;SDS011;5858;43.076;25.626;2023-04-25T07:04:26;4.28;;;3.50;;
11604;SDS011;5858;43.076;25.626;2023-04-25T07:06:54;9.25;;;6.95;;
11604;SDS011;5858;43.076;25.626;2023-04-25T07:09:24;5.15;;;3.95;;
11604;SDS011;5858;43.076;25.626;2023-04-25T07:11:51;5.40;;;3.75;;
11604;SDS011;5858;43.076;25.626;2023-04-25T07:14:18;3.85;;;3.25;;
11604;SDS011;5858;43.076;25.626;2023-04-25T07:16:45;4.00;;;3.60;;
11604;SDS011;5858;43.076;25.626;2023-04-25T07:19:12;4.10;;;3.70;;
11604;SDS011;5858;43.076;25.626;2023-04-25T07:21:39;10.02;;;3.85;;
11604;SDS011;5858;43.076;25.626;2023-04-25T07:24:07;5.35;;;3.40;;
11604;SDS011;5858;43.076;25.626;2023-04-25T07:26:34;5.68;;;3.58;;
11604;SDS011;5858;43.076;25.626;2023-04-25T07:29:01;4.18;;;3.47;;
11604;SDS011;5858;43.076;25.626;2023-04-25T07:31:28;4.03;;;3.25;;
11604;SDS011;5858;43.076;25.626;2023-04-25T07:33:55;3.00;;;2.78;;
11604;SDS011;5858;43.076;25.626;2023-04-25T07:36:22;7.47;;;2.70;;
11604;SDS011;5858;43.076;25.626;2023-04-25T07:38:51;3.33;;;2.60;;
11604;SDS011;5858;43.076;25.626;2023-04-25T07:41:20;7.88;;;3.03;;
11604;SDS011;5858;43.076;25.626;2023-04-25T07:43:46;6.90;;;3.05;;
11604;SDS011;5858;43.076;25.626;2023-04-25T07:46:13;4.40;;;2.75;;
11604;SDS011;5858;43.076;25.626;2023-04-25T07:48:40;4.28;;;2.95;;
11604;SDS011;5858;43.076;25.626;2023-04-25T07:51:07;3.15;;;2.70;;
11604;SDS011;5858;43.076;25.626;2023-04-25T07:53:34;4.22;;;2.65;;
11604;SDS011;5858;43.076;25.626;2023-04-25T07:56:02;5.45;;;4.47;;
11604;SDS011;5858;43.076;25.626;2023-04-25T07:58:31;5.75;;;3.63;;
11604;SDS011;5858;43.076;25.626;2023-04-25T08:00:58;3.60;;;2.88;;
11604;SDS011;5858;43.076;25.626;2023-04-25T08:03:25;4.28;;;3.28;;
11604;SDS011;5858;43.076;25.626;2023-04-25T08:05:52;5.95;;;3.67;;
11604;SDS011;5858;43.076;25.626;2023-04-25T08:08:19;4.75;;;4.20;;
11604;SDS011;5858;43.076;25.626;2023-04-25T08:10:50;7.40;;;4.63;;
11604;SDS011;5858;43.076;25.626;2023-04-25T08:13:17;5.32;;;3.63;;
11604;SDS011;5858;43.076;25.626;2023-04-25T08:15:46;4.72;;;2.58;;
11604;SDS011;5858;43.076;25.626;2023-04-25T08:18:13;4.30;;;2.85;;
11604;SDS011;5858;43.076;25.626;2023-04-25T08:20:40;2.90;;;1.63;;
11604;SDS011;5858;43.076;25.626;2023-04-25T08:23:08;2.90;;;1.35;;
11604;SDS011;5858;43.076;25.626;2023-04-25T08:25:38;3.47;;;2.38;;
11604;SDS011;5858;43.076;25.626;2023-04-25T08:28:11;2.88;;;1.80;;
11604;SDS011;5858;43.076;25.626;2023-04-25T08:30:40;3.17;;;1.70;;
11604;SDS011;5858;43.076;25.626;2023-04-25T08:33:08;1.83;;;1.30;;
11604;SDS011;5858;43.076;25.626;2023-04-25T08:35:36;2.53;;;1.20;;
11604;SDS011;5858;43.076;25.626;2023-04-25T08:38:03;2.35;;;1.30;;
11604;SDS011;5858;43.076;25.626;2023-04-25T08:40:37;1.33;;;1.10;;
11604;SDS011;5858;43.076;25.626;2023-04-25T08:43:06;2.92;;;1.60;;
11604;SDS011;5858;43.076;25.626;2023-04-25T08:45:39;3.50;;;2.92;;
11604;SDS011;5858;43.076;25.626;2023-04-25T08:48:10;4.07;;;3.53;;
11604;SDS011;5858;43.076;25.626;2023-04-25T08:50:38;2.83;;;1.92;;
11604;SDS011;5858;43.076;25.626;2023-04-25T08:53:08;2.22;;;1.55;;
11604;SDS011;5858;43.076;25.626;2023-04-25T08:55:44;2.92;;;1.58;;
11604;SDS011;5858;43.076;25.626;2023-04-25T08:58:12;3.45;;;1.75;;
11604;SDS011;5858;43.076;25.626;2023-04-25T09:00:43;2.60;;;1.30;;
11604;SDS011;5858;43.076;25.626;2023-04-25T09:03:14;3.38;;;1.25;;
11604;SDS011;5858;43.076;25.626;2023-04-25T09:05:41;3.03;;;1.40;;
11604;SDS011;5858;43.076;25.626;2023-04-25T09:08:11;1.92;;;1.45;;
11604;SDS011;5858;43.076;25.626;2023-04-25T09:10:37;1.73;;;1.42;;
11604;SDS011;5858;43.076;25.626;2023-04-25T09:13:05;2.45;;;2.05;;
11604;SDS011;5858;43.076;25.626;2023-04-25T09:15:35;3.45;;;1.75;;
11604;SDS011;5858;43.076;25.626;2023-04-25T09:18:22;1.40;;;1.20;;
11604;SDS011;5858;43.076;25.626;2023-04-25T09:20:52;2.42;;;1.17;;
11604;SDS011;5858;43.076;25.626;2023-04-25T09:23:20;1.55;;;1.45;;
11604;SDS011;5858;43.076;25.626;2023-04-25T09:25:47;2.60;;;2.38;;
11604;SDS011;5858;43.076;25.626;2023-04-25T09:28:24;2.08;;;1.88;;
11604;SDS011;5858;43.076;25.626;2023-04-25T09:30:54;1.40;;;1.30;;
11604;SDS011;5858;43.076;25.626;2023-04-25T09:33:28;2.72;;;1.60;;
11604;SDS011;5858;43.076;25.626;2023-04-25T09:36:01;1.75;;;1.13;;
11604;SDS011;5858;43.076;25.626;2023-04-25T09:38:30;1.75;;;1.38;;
11604;SDS011;5858;43.076;25.626;2023-04-25T09:40:58;2.10;;;1.85;;
11604;SDS011;5858;43.076;25.626;2023-04-25T09:43:39;4.25;;;1.30;;
11604;SDS011;5858;43.076;25.626;2023-04-25T09:46:23;1.85;;;1.73;;
11604;SDS011;5858;43.076;25.626;2023-04-25T09:49:05;4.05;;;1.60;;
11604;SDS011;5858;43.076;25.626;2023-04-25T09:51:33;3.58;;;1.73;;
11604;SDS011;5858;43.076;25.626;2023-04-25T09:54:02;4.95;;;1.90;;
11604;SDS011;5858;43.076;25.626;2023-04-25T09:56:29;3.05;;;1.80;;
11604;SDS011;5858;43.076;25.626;2023-04-25T09:59:02;3.08;;;1.88;;
11604;SDS011;5858;43.076;25.626;2023-04-25T10:01:30;2.50;;;1.45;;
11604;SDS011;5858;43.076;25.626;2023-04-25T10:04:07;1.80;;;1.35;;
11604;SDS011;5858;43.076;25.626;2023-04-25T10:06:37;6.30;;;2.15;;
11604;SDS011;5858;43.076;25.626;2023-04-25T10:09:19;6.78;;;2.20;;
11604;SDS011;5858;43.076;25.626;2023-04-25T10:11:48;6.38;;;2.58;;
11604;SDS011;5858;43.076;25.626;2023-04-25T10:17:02;4.37;;;1.70;;
11604;SDS011;5858;43.076;25.626;2023-04-25T10:19:32;2.70;;;1.80;;
11604;SDS011;5858;43.076;25.626;2023-04-25T10:22:04;3.50;;;2.07;;
11604;SDS011;5858;43.076;25.626;2023-04-25T10:24:38;5.17;;;2.67;;
11604;SDS011;5858;43.076;25.626;2023-04-25T10:27:07;4.28;;;2.55;;
11604;SDS011;5858;43.076;25.626;2023-04-25T10:29:34;3.80;;;1.98;;
11604;SDS011;5858;43.076;25.626;2023-04-25T10:32:02;3.35;;;2.13;;
11604;SDS011;5858;43.076;25.626;2023-04-25T10:34:42;9.33;;;5.73;;
11604;SDS011;5858;43.076;25.626;2023-04-25T10:37:20;8.97;;;6.57;;
11604;SDS011;5858;43.076;25.626;2023-04-25T10:39:47;7.27;;;3.90;;
11604;SDS011;5858;43.076;25.626;2023-04-25T10:45:06;6.30;;;3.58;;
11604;SDS011;5858;43.076;25.626;2023-04-25T10:47:43;4.32;;;2.72;;
11604;SDS011;5858;43.076;25.626;2023-04-25T10:50:14;5.50;;;3.00;;
11604;SDS011;5858;43.076;25.626;2023-04-25T10:52:45;5.35;;;3.28;;
11604;SDS011;5858;43.076;25.626;2023-04-25T10:55:14;3.28;;;2.58;;
11604;SDS011;5858;43.076;25.626;2023-04-25T10:57:43;6.70;;;4.90;;
11604;SDS011;5858;43.076;25.626;2023-04-25T11:00:17;4.63;;;2.63;;
11604;SDS011;5858;43.076;25.626;2023-04-25T11:03:03;3.67;;;2.50;;
11604;SDS011;5858;43.076;25.626;2023-04-25T11:05:35;3.17;;;2.88;;
11604;SDS011;5858;43.076;25.626;2023-04-25T11:08:03;2.63;;;2.42;;
11604;SDS011;5858;43.076;25.626;2023-04-25T11:10:39;2.88;;;2.05;;
11604;SDS011;5858;43.076;25.626;2023-04-25T11:13:12;4.05;;;3.65;;
11604;SDS011;5858;43.076;25.626;2023-04-25T11:15:45;4.70;;;4.22;;
11604;SDS011;5858;43.076;25.626;2023-04-25T11:18:15;5.53;;;4.20;;
11604;SDS011;5858;43.076;25.626;2023-04-25T11:20:47;4.72;;;4.30;;
11604;SDS011;5858;43.076;25.626;2023-04-25T11:23:15;5.93;;;5.18;;
11604;SDS011;5858;43.076;25.626;2023-04-25T11:25:43;5.55;;;4.88;;
11604;SDS011;5858;43.076;25.626;2023-04-25T11:28:20;5.35;;;3.58;;
11604;SDS011;5858;43.076;25.626;2023-04-25T11:30:54;3.17;;;2.70;;
11604;SDS011;5858;43.076;25.626;2023-04-25T11:33:25;3.10;;;2.47;;
11604;SDS011;5858;43.076;25.626;2023-04-25T11:36:00;4.63;;;2.65;;
11604;SDS011;5858;43.076;25.626;2023-04-25T11:38:28;3.72;;;3.10;;
11604;SDS011;5858;43.076;25.626;2023-04-25T11:40:56;5.45;;;3.20;;
11604;SDS011;5858;43.076;25.626;2023-04-25T11:43:23;2.08;;;1.70;;
11604;SDS011;5858;43.076;25.626;2023-04-25T11:45:52;2.40;;;1.60;;
11604;SDS011;5858;43.076;25.626;2023-04-25T11:48:19;2.05;;;1.80;;
11604;SDS011;5858;43.076;25.626;2023-04-25T11:50:46;2.75;;;1.50;;
11604;SDS011;5858;43.076;25.626;2023-04-25T11:53:17;2.67;;;1.20;;
11604;SDS011;5858;43.076;25.626;2023-04-25T11:55:49;1.52;;;1.42;;
11604;SDS011;5858;43.076;25.626;2023-04-25T11:58:16;1.13;;;0.93;;
11604;SDS011;5858;43.076;25.626;2023-04-25T12:00:44;1.30;;;1.20;;
11604;SDS011;5858;43.076;25.626;2023-04-25T12:03:12;1.38;;;1.20;;
11604;SDS011;5858;43.076;25.626;2023-04-25T12:05:39;4.40;;;1.50;;
11604;SDS011;5858;43.076;25.626;2023-04-25T12:08:10;2.38;;;1.38;;
11604;SDS011;5858;43.076;25.626;2023-04-25T12:10:40;2.80;;;1.73;;
11604;SDS011;5858;43.076;25.626;2023-04-25T12:13:19;2.60;;;1.30;;
11604;SDS011;5858;43.076;25.626;2023-04-25T12:15:52;1.73;;;1.35;;
11604;SDS011;5858;43.076;25.626;2023-04-25T12:18:23;1.50;;;1.38;;
11604;SDS011;5858;43.076;25.626;2023-04-25T12:20:53;1.20;;;1.10;;
11604;SDS011;5858;43.076;25.626;2023-04-25T12:23:25;2.75;;;1.40;;
11604;SDS011;5858;43.076;25.626;2023-04-25T12:25:55;1.20;;;1.10;;
11604;SDS011;5858;43.076;25.626;2023-04-25T12:28:24;1.65;;;1.52;;
11604;SDS011;5858;43.076;25.626;2023-04-25T12:30:59;3.17;;;2.13;;
11604;SDS011;5858;43.076;25.626;2023-04-25T12:33:28;3.00;;;1.63;;
11604;SDS011;5858;43.076;25.626;2023-04-25T12:35:56;2.85;;;2.00;;
11604;SDS011;5858;43.076;25.626;2023-04-25T12:38:26;1.83;;;1.20;;
11604;SDS011;5858;43.076;25.626;2023-04-25T12:40:57;1.77;;;1.67;;
11604;SDS011;5858;43.076;25.626;2023-04-25T12:43:25;1.75;;;1.60;;
11604;SDS011;5858;43.076;25.626;2023-04-25T12:45:57;2.80;;;1.70;;
11604;SDS011;5858;43.076;25.626;2023-04-25T12:48:24;3.45;;;1.60;;
11604;SDS011;5858;43.076;25.626;2023-04-25T12:50:52;1.55;;;1.45;;
11604;SDS011;5858;43.076;25.626;2023-04-25T12:53:22;2.17;;;1.63;;
11604;SDS011;5858;43.076;25.626;2023-04-25T12:55:50;2.20;;;1.77;;
11604;SDS011;5858;43.076;25.626;2023-04-25T12:58:19;2.35;;;2.15;;
11604;SDS011;5858;43.076;25.626;2023-04-25T13:00:46;2.92;;;2.58;;
11604;SDS011;5858;43.076;25.626;2023-04-25T13:03:15;4.32;;;2.55;;
11604;SDS011;5858;43.076;25.626;2023-04-25T13:05:43;5.50;;;2.72;;
11604;SDS011;5858;43.076;25.626;2023-04-25T13:11:35;4.63;;;3.20;;
11604;SDS011;5858;43.076;25.626;2023-04-25T13:14:12;4.32;;;3.33;;
11604;SDS011;5858;43.076;25.626;2023-04-25T13:16:42;4.40;;;3.70;;
11604;SDS011;5858;43.076;25.626;2023-04-25T13:19:10;7.28;;;4.55;;
11604;SDS011;5858;43.076;25.626;2023-04-25T13:21:38;7.82;;;4.43;;
11604;SDS011;5858;43.076;25.626;2023-04-25T13:24:05;8.27;;;5.68;;
11604;SDS011;5858;43.076;25.626;2023-04-25T13:26:34;9.75;;;5.80;;
11604;SDS011;5858;43.076;25.626;2023-04-25T13:29:02;6.90;;;4.50;;
11604;SDS011;5858;43.076;25.626;2023-04-25T13:31:33;6.75;;;4.68;;
11604;SDS011;5858;43.076;25.626;2023-04-25T13:34:02;6.55;;;3.80;;
11604;SDS011;5858;43.076;25.626;2023-04-25T13:36:32;10.90;;;6.45;;
11604;SDS011;5858;43.076;25.626;2023-04-25T13:39:00;8.18;;;4.90;;
11604;SDS011;5858;43.076;25.626;2023-04-25T13:41:31;6.75;;;5.28;;
11604;SDS011;5858;43.076;25.626;2023-04-25T13:44:01;6.00;;;4.70;;
11604;SDS011;5858;43.076;25.626;2023-04-25T13:46:31;5.90;;;5.03;;
11604;SDS011;5858;43.076;25.626;2023-04-25T13:49:05;7.93;;;6.07;;
11604;SDS011;5858;43.076;25.626;2023-04-25T13:51:32;5.70;;;4.55;;
11604;SDS011;5858;43.076;25.626;2023-04-25T13:54:00;3.97;;;3.60;;
11604;SDS011;5858;43.076;25.626;2023-04-25T13:56:27;6.43;;;4.10;;
11604;SDS011;5858;43.076;25.626;2023-04-25T13:58:56;4.18;;;3.80;;
11604;SDS011;5858;43.076;25.626;2023-04-25T14:01:26;2.50;;;2.30;;
11604;SDS011;5858;43.076;25.626;2023-04-25T14:03:57;2.45;;;2.20;;
11604;SDS011;5858;43.076;25.626;2023-04-25T14:06:24;3.35;;;2.40;;
11604;SDS011;5858;43.076;25.626;2023-04-25T14:08:53;3.20;;;2.90;;
11604;SDS011;5858;43.076;25.626;2023-04-25T14:11:20;5.43;;;3.53;;
11604;SDS011;5858;43.076;25.626;2023-04-25T14:13:48;9.85;;;3.53;;
11604;SDS011;5858;43.076;25.626;2023-04-25T14:16:15;2.70;;;2.33;;
11604;SDS011;5858;43.076;25.626;2023-04-25T14:18:42;8.45;;;2.78;;
11604;SDS011;5858;43.076;25.626;2023-04-25T14:21:11;4.13;;;2.65;;
11604;SDS011;5858;43.076;25.626;2023-04-25T14:23:39;5.88;;;3.13;;
11604;SDS011;5858;43.076;25.626;2023-04-25T14:26:06;7.00;;;2.60;;
11604;SDS011;5858;43.076;25.626;2023-04-25T14:28:37;3.85;;;2.75;;
11604;SDS011;5858;43.076;25.626;2023-04-25T14:31:04;4.65;;;2.60;;
11604;SDS011;5858;43.076;25.626;2023-04-25T14:33:31;3.78;;;2.30;;
11604;SDS011;5858;43.076;25.626;2023-04-25T14:35:59;5.93;;;2.40;;
11604;SDS011;5858;43.076;25.626;2023-04-25T14:38:27;3.13;;;2.92;;
11604;SDS011;5858;43.076;25.626;2023-04-25T14:40:55;3.00;;;2.67;;
11604;SDS011;5858;43.076;25.626;2023-04-25T14:43:23;3.53;;;1.55;;
11604;SDS011;5858;43.076;25.626;2023-04-25T14:45:59;1.80;;;1.50;;
11604;SDS011;5858;43.076;25.626;2023-04-25T14:48:29;2.33;;;1.47;;
11604;SDS011;5858;43.076;25.626;2023-04-25T14:50:56;1.97;;;1.73;;
11604;SDS011;5858;43.076;25.626;2023-04-25T14:53:23;2.83;;;1.00;;
11604;SDS011;5858;43.076;25.626;2023-04-25T14:55:52;4.53;;;1.70;;
11604;SDS011;5858;43.076;25.626;2023-04-25T14:58:19;3.37;;;1.50;;
11604;SDS011;5858;43.076;25.626;2023-04-25T15:00:47;4.63;;;2.20;;